sensor_id;sensor_type;location;lat;lon;timestamp;temperature;humidity
20957;DHT22;10637;47.970;7.830;2023-06-05T00:00:07;16.30;99.90
20957;DHT22;10637;47.970;7.830;2023-06-05T00:05:10;16.30;99.90
20957;DHT22;10637;47.970;7.830;2023-06-05T00:10:12;16.00;99.90
20957;DHT22;10637;47.970;7.830;2023-06-05T00:15:15;15.90;99.90
20957;DHT22;10637;47.970;7.830;2023-06-05T00:20:17;15.80;99.90
20957;DHT22;10637;47.970;7.830;2023-06-05T00:25:19;15.60;99.90
20957;DHT22;10637;47.970;7.830;2023-06-05T00:30:21;15.20;99.90
20957;DHT22;10637;47.970;7.830;2023-06-05T00:35:23;15.40;99.90
20957;DHT22;10637;47.970;7.830;2023-06-05T00:40:25;15.40;99.90
20957;DHT22;10637;47.970;7.830;2023-06-05T00:45:26;15.50;99.90
20957;DHT22;10637;47.970;7.830;2023-06-05T00:50:28;15.50;99.90
20957;DHT22;10637;47.970;7.830;2023-06-05T00:55:34;15.30;99.90
20957;DHT22;10637;47.970;7.830;2023-06-05T01:00:36;15.20;99.90
20957;DHT22;10637;47.970;7.830;2023-06-05T01:05:38;15.40;99.90
20957;DHT22;10637;47.970;7.830;2023-06-05T01:10:39;15.30;99.90
20957;DHT22;10637;47.970;7.830;2023-06-05T01:15:42;15.10;99.90
20957;DHT22;10637;47.970;7.830;2023-06-05T01:20:43;15.00;99.90
20957;DHT22;10637;47.970;7.830;2023-06-05T01:25:45;14.90;99.90
20957;DHT22;10637;47.970;7.830;2023-06-05T01:31:06;14.60;99.90
20957;DHT22;10637;47.970;7.830;2023-06-05T01:36:11;14.70;99.90
20957;DHT22;10637;47.970;7.830;2023-06-05T01:41:16;14.80;99.90
20957;DHT22;10637;47.970;7.830;2023-06-05T01:46:21;14.90;99.90
20957;DHT22;10637;47.970;7.830;2023-06-05T01:51:24;14.70;99.90
20957;DHT22;10637;47.970;7.830;2023-06-05T01:56:26;14.50;99.90
20957;DHT22;10637;47.970;7.830;2023-06-05T02:01:28;14.30;99.90
20957;DHT22;10637;47.970;7.830;2023-06-05T02:06:34;14.30;99.90
20957;DHT22;10637;47.970;7.830;2023-06-05T02:11:45;14.30;99.90
20957;DHT22;10637;47.970;7.830;2023-06-05T02:16:48;14.20;99.90
20957;DHT22;10637;47.970;7.830;2023-06-05T02:21:50;14.20;99.90
20957;DHT22;10637;47.970;7.830;2023-06-05T02:26:55;14.20;99.90
20957;DHT22;10637;47.970;7.830;2023-06-05T02:31:58;14.20;99.90
20957;DHT22;10637;47.970;7.830;2023-06-05T02:37:00;14.10;99.90
20957;DHT22;10637;47.970;7.830;2023-06-05T02:42:02;14.20;99.90
20957;DHT22;10637;47.970;7.830;2023-06-05T02:47:04;13.90;99.90
20957;DHT22;10637;47.970;7.830;2023-06-05T02:52:06;13.70;99.90
20957;DHT22;10637;47.970;7.830;2023-06-05T02:57:08;13.70;99.90
20957;DHT22;10637;47.970;7.830;2023-06-05T03:02:10;13.80;99.90
20957;DHT22;10637;47.970;7.830;2023-06-05T03:07:12;13.70;99.90
20957;DHT22;10637;47.970;7.830;2023-06-05T03:12:14;13.60;99.90
20957;DHT22;10637;47.970;7.830;2023-06-05T03:17:16;13.60;99.90
20957;DHT22;10637;47.970;7.830;2023-06-05T03:22:18;13.70;99.90
20957;DHT22;10637;47.970;7.830;2023-06-05T03:27:20;13.50;99.90
20957;DHT22;10637;47.970;7.830;2023-06-05T03:32:21;13.50;99.90
20957;DHT22;10637;47.970;7.830;2023-06-05T03:37:23;13.50;99.90
20957;DHT22;10637;47.970;7.830;2023-06-05T03:42:25;13.50;99.90
20957;DHT22;10637;47.970;7.830;2023-06-05T03:47:27;13.50;99.90
20957;DHT22;10637;47.970;7.830;2023-06-05T03:52:30;13.60;99.90
20957;DHT22;10637;47.970;7.830;2023-06-05T03:57:32;13.30;99.90
20957;DHT22;10637;47.970;7.830;2023-06-05T04:02:33;13.30;99.90
20957;DHT22;10637;47.970;7.830;2023-06-05T04:07:35;13.40;99.90
20957;DHT22;10637;47.970;7.830;2023-06-05T04:12:37;13.40;99.90
20957;DHT22;10637;47.970;7.830;2023-06-05T04:17:39;13.30;99.90
20957;DHT22;10637;47.970;7.830;2023-06-05T04:22:41;13.30;99.90
20957;DHT22;10637;47.970;7.830;2023-06-05T04:27:45;13.30;99.90
20957;DHT22;10637;47.970;7.830;2023-06-05T04:32:47;13.60;99.90
20957;DHT22;10637;47.970;7.830;2023-06-05T04:37:56;13.70;99.90
20957;DHT22;10637;47.970;7.830;2023-06-05T04:42:58;13.70;99.90
20957;DHT22;10637;47.970;7.830;2023-06-05T04:48:00;13.70;99.90
20957;DHT22;10637;47.970;7.830;2023-06-05T04:53:02;13.60;99.90
20957;DHT22;10637;47.970;7.830;2023-06-05T04:58:04;13.80;99.90
20957;DHT22;10637;47.970;7.830;2023-06-05T05:03:07;13.80;99.90
20957;DHT22;10637;47.970;7.830;2023-06-05T05:08:09;13.90;99.90
20957;DHT22;10637;47.970;7.830;2023-06-05T05:13:11;14.10;99.90
20957;DHT22;10637;47.970;7.830;2023-06-05T05:18:13;14.40;99.90
20957;DHT22;10637;47.970;7.830;2023-06-05T05:23:15;14.70;99.90
20957;DHT22;10637;47.970;7.830;2023-06-05T05:28:19;15.00;99.90
20957;DHT22;10637;47.970;7.830;2023-06-05T05:33:22;15.10;99.90
20957;DHT22;10637;47.970;7.830;2023-06-05T05:38:23;15.40;99.90
20957;DHT22;10637;47.970;7.830;2023-06-05T05:43:26;15.60;99.90
20957;DHT22;10637;47.970;7.830;2023-06-05T05:48:28;15.90;99.90
20957;DHT22;10637;47.970;7.830;2023-06-05T05:53:30;15.90;99.90
20957;DHT22;10637;47.970;7.830;2023-06-05T05:58:32;15.90;99.90
20957;DHT22;10637;47.970;7.830;2023-06-05T06:03:35;16.20;99.90
20957;DHT22;10637;47.970;7.830;2023-06-05T06:08:39;16.60;99.90
20957;DHT22;10637;47.970;7.830;2023-06-05T06:13:41;16.90;99.90
20957;DHT22;10637;47.970;7.830;2023-06-05T06:18:43;17.20;99.90
20957;DHT22;10637;47.970;7.830;2023-06-05T06:23:45;17.30;99.90
20957;DHT22;10637;47.970;7.830;2023-06-05T06:28:47;17.40;99.90
20957;DHT22;10637;47.970;7.830;2023-06-05T06:33:49;17.80;99.90
20957;DHT22;10637;47.970;7.830;2023-06-05T06:38:51;17.90;99.90
20957;DHT22;10637;47.970;7.830;2023-06-05T06:43:53;18.20;99.90
20957;DHT22;10637;47.970;7.830;2023-06-05T06:48:54;18.40;99.90
20957;DHT22;10637;47.970;7.830;2023-06-05T06:53:56;18.70;99.90
20957;DHT22;10637;47.970;7.830;2023-06-05T06:58:58;18.80;99.90
20957;DHT22;10637;47.970;7.830;2023-06-05T07:04:00;19.10;99.90
20957;DHT22;10637;47.970;7.830;2023-06-05T07:09:02;19.30;99.90
20957;DHT22;10637;47.970;7.830;2023-06-05T07:14:04;19.10;99.90
20957;DHT22;10637;47.970;7.830;2023-06-05T07:19:06;19.60;99.90
20957;DHT22;10637;47.970;7.830;2023-06-05T07:24:07;19.70;99.90
20957;DHT22;10637;47.970;7.830;2023-06-05T07:29:11;19.90;99.90
20957;DHT22;10637;47.970;7.830;2023-06-05T07:34:13;19.90;99.90
20957;DHT22;10637;47.970;7.830;2023-06-05T07:39:15;20.40;99.90
20957;DHT22;10637;47.970;7.830;2023-06-05T07:44:18;20.30;99.90
20957;DHT22;10637;47.970;7.830;2023-06-05T07:49:21;20.50;99.90
20957;DHT22;10637;47.970;7.830;2023-06-05T07:54:24;20.70;99.90
20957;DHT22;10637;47.970;7.830;2023-06-05T07:59:26;20.90;99.90
20957;DHT22;10637;47.970;7.830;2023-06-05T08:04:29;21.00;99.90
20957;DHT22;10637;47.970;7.830;2023-06-05T08:09:32;21.30;99.90
20957;DHT22;10637;47.970;7.830;2023-06-05T08:14:35;21.60;99.90
20957;DHT22;10637;47.970;7.830;2023-06-05T08:19:40;21.60;99.90
20957;DHT22;10637;47.970;7.830;2023-06-05T08:24:42;22.10;99.90
20957;DHT22;10637;47.970;7.830;2023-06-05T08:29:44;22.40;99.50
20957;DHT22;10637;47.970;7.830;2023-06-05T08:34:45;22.50;99.30
20957;DHT22;10637;47.970;7.830;2023-06-05T08:39:47;22.50;98.20
20957;DHT22;10637;47.970;7.830;2023-06-05T08:44:50;22.70;99.10
20957;DHT22;10637;47.970;7.830;2023-06-05T08:50:06;23.30;98.10
20957;DHT22;10637;47.970;7.830;2023-06-05T08:55:08;23.40;99.10
20957;DHT22;10637;47.970;7.830;2023-06-05T09:00:12;23.80;96.10
20957;DHT22;10637;47.970;7.830;2023-06-05T09:05:14;23.90;94.60
20957;DHT22;10637;47.970;7.830;2023-06-05T09:10:27;23.60;96.70
20957;DHT22;10637;47.970;7.830;2023-06-05T09:15:33;24.30;96.00
20957;DHT22;10637;47.970;7.830;2023-06-05T09:20:37;24.40;95.20
20957;DHT22;10637;47.970;7.830;2023-06-05T09:25:46;24.50;96.70
20957;DHT22;10637;47.970;7.830;2023-06-05T09:30:54;24.80;95.10
20957;DHT22;10637;47.970;7.830;2023-06-05T09:36:11;24.90;96.80
20957;DHT22;10637;47.970;7.830;2023-06-05T09:41:14;25.30;96.00
20957;DHT22;10637;47.970;7.830;2023-06-05T09:46:16;25.40;96.30
20957;DHT22;10637;47.970;7.830;2023-06-05T09:51:19;25.60;95.80
20957;DHT22;10637;47.970;7.830;2023-06-05T09:56:22;25.80;94.90
20957;DHT22;10637;47.970;7.830;2023-06-05T10:01:24;26.10;93.90
20957;DHT22;10637;47.970;7.830;2023-06-05T10:06:27;26.40;93.80
20957;DHT22;10637;47.970;7.830;2023-06-05T10:11:30;26.50;94.70
20957;DHT22;10637;47.970;7.830;2023-06-05T10:16:32;26.70;93.10
20957;DHT22;10637;47.970;7.830;2023-06-05T10:21:35;26.90;93.40
20957;DHT22;10637;47.970;7.830;2023-06-05T10:37:54;27.70;90.80
20957;DHT22;10637;47.970;7.830;2023-06-05T10:43:23;27.50;90.20
20957;DHT22;10637;47.970;7.830;2023-06-05T10:54:14;28.10;91.60
20957;DHT22;10637;47.970;7.830;2023-06-05T10:59:19;28.40;89.50
20957;DHT22;10637;47.970;7.830;2023-06-05T11:04:23;28.70;87.70
20957;DHT22;10637;47.970;7.830;2023-06-05T11:09:26;28.80;88.00
20957;DHT22;10637;47.970;7.830;2023-06-05T11:14:45;29.00;87.50
20957;DHT22;10637;47.970;7.830;2023-06-05T11:19:48;28.90;88.40
20957;DHT22;10637;47.970;7.830;2023-06-05T11:30:23;29.10;84.00
20957;DHT22;10637;47.970;7.830;2023-06-05T11:35:45;29.30;78.50
20957;DHT22;10637;47.970;7.830;2023-06-05T11:40:48;29.30;80.80
20957;DHT22;10637;47.970;7.830;2023-06-05T11:45:53;28.70;79.30
20957;DHT22;10637;47.970;7.830;2023-06-05T11:51:01;29.10;79.20
20957;DHT22;10637;47.970;7.830;2023-06-05T11:56:12;29.10;80.00
20957;DHT22;10637;47.970;7.830;2023-06-05T12:01:18;29.40;78.60
20957;DHT22;10637;47.970;7.830;2023-06-05T12:06:24;29.50;77.00
20957;DHT22;10637;47.970;7.830;2023-06-05T12:11:27;29.00;79.00
20957;DHT22;10637;47.970;7.830;2023-06-05T12:16:33;29.60;79.20
20957;DHT22;10637;47.970;7.830;2023-06-05T12:21:36;30.10;76.90
20957;DHT22;10637;47.970;7.830;2023-06-05T12:26:57;30.20;75.80
20957;DHT22;10637;47.970;7.830;2023-06-05T12:32:01;30.30;74.60
20957;DHT22;10637;47.970;7.830;2023-06-05T12:37:03;30.20;75.10
20957;DHT22;10637;47.970;7.830;2023-06-05T12:42:07;30.20;74.90
20957;DHT22;10637;47.970;7.830;2023-06-05T12:47:09;30.60;75.20
20957;DHT22;10637;47.970;7.830;2023-06-05T12:52:11;30.60;73.50
20957;DHT22;10637;47.970;7.830;2023-06-05T12:57:13;30.30;74.40
20957;DHT22;10637;47.970;7.830;2023-06-05T13:02:15;30.10;74.00
20957;DHT22;10637;47.970;7.830;2023-06-05T13:07:17;30.10;72.60
20957;DHT22;10637;47.970;7.830;2023-06-05T13:12:19;30.10;74.70
20957;DHT22;10637;47.970;7.830;2023-06-05T13:17:21;30.60;73.20
20957;DHT22;10637;47.970;7.830;2023-06-05T13:22:24;31.00;73.50
20957;DHT22;10637;47.970;7.830;2023-06-05T13:27:27;30.90;74.00
20957;DHT22;10637;47.970;7.830;2023-06-05T13:32:32;30.80;72.70
20957;DHT22;10637;47.970;7.830;2023-06-05T13:37:33;30.80;72.20
20957;DHT22;10637;47.970;7.830;2023-06-05T13:42:36;31.00;72.10
20957;DHT22;10637;47.970;7.830;2023-06-05T13:47:38;30.90;70.10
20957;DHT22;10637;47.970;7.830;2023-06-05T13:52:40;30.40;71.40
20957;DHT22;10637;47.970;7.830;2023-06-05T13:57:41;30.30;69.60
20957;DHT22;10637;47.970;7.830;2023-06-05T14:02:43;30.10;70.50
20957;DHT22;10637;47.970;7.830;2023-06-05T14:07:45;30.30;70.10
20957;DHT22;10637;47.970;7.830;2023-06-05T14:12:51;30.30;70.10
20957;DHT22;10637;47.970;7.830;2023-06-05T14:17:53;30.40;70.00
20957;DHT22;10637;47.970;7.830;2023-06-05T14:22:59;30.40;69.80
20957;DHT22;10637;47.970;7.830;2023-06-05T14:28:01;30.50;71.10
20957;DHT22;10637;47.970;7.830;2023-06-05T14:33:03;30.20;70.00
20957;DHT22;10637;47.970;7.830;2023-06-05T14:38:05;30.20;72.40
20957;DHT22;10637;47.970;7.830;2023-06-05T14:43:07;30.20;72.60
20957;DHT22;10637;47.970;7.830;2023-06-05T14:48:09;30.20;71.60
20957;DHT22;10637;47.970;7.830;2023-06-05T14:53:12;30.10;73.70
20957;DHT22;10637;47.970;7.830;2023-06-05T14:58:15;30.20;71.50
20957;DHT22;10637;47.970;7.830;2023-06-05T15:03:17;30.20;72.20
20957;DHT22;10637;47.970;7.830;2023-06-05T15:08:19;29.90;73.00
20957;DHT22;10637;47.970;7.830;2023-06-05T15:13:23;29.70;73.80
20957;DHT22;10637;47.970;7.830;2023-06-05T15:18:25;29.90;75.10
20957;DHT22;10637;47.970;7.830;2023-06-05T15:23:28;30.00;74.60
20957;DHT22;10637;47.970;7.830;2023-06-05T15:28:30;29.70;78.00
20957;DHT22;10637;47.970;7.830;2023-06-05T15:33:31;30.20;77.40
20957;DHT22;10637;47.970;7.830;2023-06-05T15:38:33;30.00;76.60
20957;DHT22;10637;47.970;7.830;2023-06-05T15:43:35;30.20;77.00
20957;DHT22;10637;47.970;7.830;2023-06-05T15:48:37;30.10;76.80
20957;DHT22;10637;47.970;7.830;2023-06-05T15:53:40;30.00;79.50
20957;DHT22;10637;47.970;7.830;2023-06-05T15:59:01;30.20;78.60
20957;DHT22;10637;47.970;7.830;2023-06-05T16:04:02;29.80;78.10
20957;DHT22;10637;47.970;7.830;2023-06-05T16:09:04;30.00;79.20
20957;DHT22;10637;47.970;7.830;2023-06-05T16:14:06;30.20;79.60
20957;DHT22;10637;47.970;7.830;2023-06-05T16:19:09;29.50;78.00
20957;DHT22;10637;47.970;7.830;2023-06-05T16:24:11;29.20;79.20
20957;DHT22;10637;47.970;7.830;2023-06-05T16:29:13;28.60;79.20
20957;DHT22;10637;47.970;7.830;2023-06-05T16:34:15;28.10;84.70
20957;DHT22;10637;47.970;7.830;2023-06-05T16:39:17;27.60;85.70
20957;DHT22;10637;47.970;7.830;2023-06-05T16:44:19;26.20;86.00
20957;DHT22;10637;47.970;7.830;2023-06-05T16:49:21;26.00;88.00
20957;DHT22;10637;47.970;7.830;2023-06-05T16:54:23;26.50;94.90
20957;DHT22;10637;47.970;7.830;2023-06-05T16:59:25;25.10;97.10
20957;DHT22;10637;47.970;7.830;2023-06-05T17:04:27;24.60;99.90
20957;DHT22;10637;47.970;7.830;2023-06-05T17:09:29;23.60;99.90
20957;DHT22;10637;47.970;7.830;2023-06-05T17:14:32;23.60;99.90
20957;DHT22;10637;47.970;7.830;2023-06-05T17:19:34;23.50;99.90
20957;DHT22;10637;47.970;7.830;2023-06-05T17:24:36;23.10;99.90
20957;DHT22;10637;47.970;7.830;2023-06-05T17:29:37;22.60;99.90
20957;DHT22;10637;47.970;7.830;2023-06-05T17:34:40;22.10;99.90
20957;DHT22;10637;47.970;7.830;2023-06-05T17:39:42;22.60;99.90
20957;DHT22;10637;47.970;7.830;2023-06-05T17:44:44;22.60;99.90
20957;DHT22;10637;47.970;7.830;2023-06-05T17:49:45;22.80;99.90
20957;DHT22;10637;47.970;7.830;2023-06-05T17:54:47;23.00;99.90
20957;DHT22;10637;47.970;7.830;2023-06-05T17:59:49;22.90;99.90
20957;DHT22;10637;47.970;7.830;2023-06-05T18:04:51;22.20;99.90
20957;DHT22;10637;47.970;7.830;2023-06-05T18:09:53;21.80;99.90
20957;DHT22;10637;47.970;7.830;2023-06-05T18:14:55;21.70;99.90
20957;DHT22;10637;47.970;7.830;2023-06-05T18:19:57;21.50;99.90
20957;DHT22;10637;47.970;7.830;2023-06-05T18:24:59;21.70;99.90
20957;DHT22;10637;47.970;7.830;2023-06-05T18:30:01;22.00;99.90
20957;DHT22;10637;47.970;7.830;2023-06-05T18:35:03;21.60;99.90
20957;DHT22;10637;47.970;7.830;2023-06-05T18:40:07;20.90;99.90
20957;DHT22;10637;47.970;7.830;2023-06-05T18:45:10;20.60;99.90
20957;DHT22;10637;47.970;7.830;2023-06-05T18:50:12;20.90;99.90
20957;DHT22;10637;47.970;7.830;2023-06-05T18:55:14;20.70;99.90
20957;DHT22;10637;47.970;7.830;2023-06-05T19:00:17;20.50;99.90
20957;DHT22;10637;47.970;7.830;2023-06-05T19:05:19;20.00;99.90
20957;DHT22;10637;47.970;7.830;2023-06-05T19:10:21;19.60;99.90
20957;DHT22;10637;47.970;7.830;2023-06-05T19:15:23;19.40;99.90
20957;DHT22;10637;47.970;7.830;2023-06-05T19:20:25;19.30;99.90
20957;DHT22;10637;47.970;7.830;2023-06-05T19:25:26;19.30;99.90
20957;DHT22;10637;47.970;7.830;2023-06-05T19:30:28;19.20;99.90
20957;DHT22;10637;47.970;7.830;2023-06-05T19:35:30;19.00;99.90
20957;DHT22;10637;47.970;7.830;2023-06-05T19:40:32;18.60;99.90
20957;DHT22;10637;47.970;7.830;2023-06-05T19:45:34;18.50;99.90
20957;DHT22;10637;47.970;7.830;2023-06-05T19:50:36;18.40;99.90
20957;DHT22;10637;47.970;7.830;2023-06-05T19:55:39;18.40;99.90
20957;DHT22;10637;47.970;7.830;2023-06-05T20:00:41;18.50;99.90
20957;DHT22;10637;47.970;7.830;2023-06-05T20:05:43;18.10;99.90
20957;DHT22;10637;47.970;7.830;2023-06-05T20:10:45;17.90;99.90
20957;DHT22;10637;47.970;7.830;2023-06-05T20:15:47;18.00;99.90
20957;DHT22;10637;47.970;7.830;2023-06-05T20:20:52;18.10;99.90
20957;DHT22;10637;47.970;7.830;2023-06-05T20:25:56;18.00;99.90
20957;DHT22;10637;47.970;7.830;2023-06-05T20:30:59;18.00;99.90
20957;DHT22;10637;47.970;7.830;2023-06-05T20:36:02;18.00;99.90
20957;DHT22;10637;47.970;7.830;2023-06-05T20:41:10;17.70;99.90
20957;DHT22;10637;47.970;7.830;2023-06-05T20:46:15;17.10;99.90
20957;DHT22;10637;47.970;7.830;2023-06-05T20:51:22;17.10;99.90
20957;DHT22;10637;47.970;7.830;2023-06-05T20:56:25;17.30;99.90
20957;DHT22;10637;47.970;7.830;2023-06-05T21:01:29;17.20;99.90
20957;DHT22;10637;47.970;7.830;2023-06-05T21:06:34;17.30;99.90
20957;DHT22;10637;47.970;7.830;2023-06-05T21:11:38;17.30;99.90
20957;DHT22;10637;47.970;7.830;2023-06-05T21:16:41;17.30;99.90
20957;DHT22;10637;47.970;7.830;2023-06-05T21:21:44;17.40;99.90
20957;DHT22;10637;47.970;7.830;2023-06-05T21:26:46;17.30;99.90
20957;DHT22;10637;47.970;7.830;2023-06-05T21:31:49;17.20;99.90
20957;DHT22;10637;47.970;7.830;2023-06-05T21:36:51;17.30;99.90
20957;DHT22;10637;47.970;7.830;2023-06-05T21:41:53;17.30;99.90
20957;DHT22;10637;47.970;7.830;2023-06-05T21:46:55;17.20;99.90
20957;DHT22;10637;47.970;7.830;2023-06-05T21:51:56;17.20;99.90
20957;DHT22;10637;47.970;7.830;2023-06-05T21:56:58;17.20;99.90
20957;DHT22;10637;47.970;7.830;2023-06-05T22:02:00;17.20;99.90
20957;DHT22;10637;47.970;7.830;2023-06-05T22:07:02;17.20;99.90
20957;DHT22;10637;47.970;7.830;2023-06-05T22:12:04;17.10;99.90
20957;DHT22;10637;47.970;7.830;2023-06-05T22:17:06;17.10;99.90
20957;DHT22;10637;47.970;7.830;2023-06-05T22:22:10;17.10;99.90
20957;DHT22;10637;47.970;7.830;2023-06-05T22:27:12;17.00;99.90
20957;DHT22;10637;47.970;7.830;2023-06-05T22:32:14;17.00;99.90
20957;DHT22;10637;47.970;7.830;2023-06-05T22:37:16;16.80;99.90
20957;DHT22;10637;47.970;7.830;2023-06-05T22:42:18;16.80;99.90
20957;DHT22;10637;47.970;7.830;2023-06-05T22:47:20;16.60;99.90
20957;DHT22;10637;47.970;7.830;2023-06-05T22:52:22;16.60;99.90
20957;DHT22;10637;47.970;7.830;2023-06-05T22:57:25;16.50;99.90
20957;DHT22;10637;47.970;7.830;2023-06-05T23:02:27;16.50;99.90
20957;DHT22;10637;47.970;7.830;2023-06-05T23:07:29;16.50;99.90
20957;DHT22;10637;47.970;7.830;2023-06-05T23:12:31;16.40;99.90
20957;DHT22;10637;47.970;7.830;2023-06-05T23:17:33;16.30;99.90
20957;DHT22;10637;47.970;7.830;2023-06-05T23:22:35;16.30;99.90
20957;DHT22;10637;47.970;7.830;2023-06-05T23:27:36;16.10;99.90
20957;DHT22;10637;47.970;7.830;2023-06-05T23:32:38;15.90;99.90
20957;DHT22;10637;47.970;7.830;2023-06-05T23:37:42;15.90;99.90
20957;DHT22;10637;47.970;7.830;2023-06-05T23:42:43;15.80;99.90
20957;DHT22;10637;47.970;7.830;2023-06-05T23:47:48;15.80;99.90
20957;DHT22;10637;47.970;7.830;2023-06-05T23:52:52;15.70;99.90
20957;DHT22;10637;47.970;7.830;2023-06-05T23:57:54;15.70;99.90
